Time;durP1;ratioP1;P1;durP2;ratioP2;P2;SDS_P1;SDS_P2;PMS_P1;PMS_P2;Temp;Humidity;BMP_temperature;BMP_pressure;BME280_temperature;BME280_humidity;BME280_pressure;Samples;Min_cycle;Max_cycle;Signal;HPM_P1;HPM_P2
2022/02/15 00:00:59;;;;;;;182.50;109.03;;;180.00;2252.80;;;;;;4790411;30;19916;-85
2022/02/15 00:04:28;;;;;;;145.68;93.60;;;180.00;2252.80;;;;;;4786123;29;20024;-85
2022/02/15 00:08:03;;;;;;;138.30;89.43;;;179.80;2252.80;;;;;;4724006;30;20499;-84
2022/02/15 00:11:33;;;;;;;151.77;93.15;;;179.80;2252.80;;;;;;4753782;30;20039;-84
2022/02/15 00:15:07;;;;;;;172.88;104.63;;;179.90;2252.80;;;;;;4752973;30;20036;-85
2022/02/15 00:18:27;;;;;;;179.15;108.68;;;180.00;2252.80;;;;;;4751935;30;20036;-84
2022/02/15 00:22:26;;;;;;;173.38;105.15;;;179.90;2252.80;;;;;;4752605;30;20040;-84
2022/02/15 00:25:57;;;;;;;178.55;110.63;;;179.60;2252.80;;;;;;4752740;30;20036;-84
2022/02/15 00:29:19;;;;;;;176.88;107.85;;;179.70;2252.80;;;;;;4756903;30;20036;-84
2022/02/15 00:33:05;;;;;;;175.02;114.22;;;179.70;2252.80;;;;;;4740838;30;20041;-84
2022/02/15 00:36:48;;;;;;;196.18;124.43;;;179.60;2252.80;;;;;;4769964;30;20354;-83
2022/02/15 00:40:33;;;;;;;195.82;126.88;;;179.80;2252.80;;;;;;4754793;30;20036;-83
2022/02/15 00:43:59;;;;;;;167.93;106.78;;;179.70;2252.80;;;;;;4746751;30;20036;-82
2022/02/15 00:47:58;;;;;;;144.88;95.03;;;179.50;2252.80;;;;;;4736778;30;20490;-83
2022/02/15 00:51:31;;;;;;;157.73;102.07;;;179.60;2252.80;;;;;;4703531;30;20111;-83
2022/02/15 00:55:00;;;;;;;148.85;93.43;;;154.50;2252.80;;;;;;4702150;30;20029;-82
2022/02/15 00:58:18;;;;;;;145.20;94.63;;;179.40;2252.80;;;;;;4639579;30;20038;-83
2022/02/15 01:01:27;;;;;;;127.80;81.07;;;179.70;2252.80;;;;;;4664882;30;20551;-83
2022/02/15 01:04:17;;;;;;;145.85;94.65;;;179.50;2252.80;;;;;;4666822;30;20531;-82
2022/02/15 01:07:46;;;;;;;193.15;111.82;;;179.60;2252.80;;;;;;4684634;30;20038;-82
2022/02/15 01:11:11;;;;;;;156.52;95.88;;;179.60;2252.80;;;;;;4651497;30;20038;-83
2022/02/15 01:18:32;;;;;;;143.65;91.55;;;179.80;2252.80;;;;;;4666387;30;20041;-83
2022/02/15 01:22:14;;;;;;;156.15;96.53;;;179.60;2252.80;;;;;;4676253;30;20037;-83
2022/02/15 01:26:07;;;;;;;158.60;102.38;;;179.80;2252.80;;;;;;4650992;30;20085;-83
2022/02/15 01:29:09;;;;;;;160.75;97.35;;;179.70;2252.80;;;;;;4649490;30;20128;-83
2022/02/15 01:32:57;;;;;;;139.30;90.85;;;179.80;2252.80;;;;;;4646759;30;20560;-83
2022/02/15 01:37:01;;;;;;;;;;;;;;;;;;;;;
2022/02/15 01:40:47;;;;;;;120.68;79.72;;;179.60;2252.80;;;;;;4592008;31;20046;-84
2022/02/15 01:44:21;;;;;;;132.50;85.40;;;179.80;2252.80;;;;;;4598072;31;20521;-84
2022/02/15 01:51:46;;;;;;;135.90;86.85;;;179.70;2252.80;;;;;;4495169;31;20099;-83
2022/02/15 01:55:02;;;;;;;120.25;77.93;;;179.80;2252.80;;;;;;4531968;31;20038;-84
2022/02/15 01:57:54;;;;;;;219.82;110.88;;;179.80;2252.80;;;;;;4529037;31;20040;-83
2022/02/15 02:01:25;;;;;;;186.40;105.82;;;179.90;2252.80;;;;;;4563653;31;20056;-83
2022/02/15 02:08:20;;;;;;;217.25;108.50;;;180.00;2252.80;;;;;;4617399;30;20116;-86
2022/02/15 02:11:31;;;;;;;229.13;114.72;;;180.10;2252.80;;;;;;4635037;30;20051;-84
2022/02/15 02:15:01;;;;;;;145.30;86.72;;;180.10;2252.80;;;;;;4632693;30;20031;-84
2022/02/15 02:18:18;;;;;;;206.00;109.88;;;179.90;2252.80;;;;;;4599039;30;20058;-85
2022/02/15 02:21:50;;;;;;;186.98;100.90;;;180.10;2252.80;;;;;;4641695;30;20035;-83
2022/02/15 02:31:14;;;;;;;138.63;85.53;;;179.90;2252.80;;;;;;4684889;30;20048;-83
2022/02/15 02:33:51;;;;;;;140.50;89.60;;;179.90;2252.80;;;;;;4668097;30;20034;-83
2022/02/15 02:36:30;;;;;;;144.93;92.20;;;179.90;2252.80;;;;;;4669489;30;20045;-83
2022/02/15 02:45:46;;;;;;;145.80;92.25;;;179.40;2252.80;;;;;;4699478;30;20525;-83
2022/02/15 02:49:05;;;;;;;162.93;102.18;;;179.50;2252.80;;;;;;4673518;30;20451;-83
2022/02/15 02:52:36;;;;;;;158.18;99.13;;;179.70;2252.80;;;;;;4689469;30;20186;-84
2022/02/15 02:59:07;;;;;;;114.57;73.30;;;179.90;2252.80;;;;;;4702006;30;20618;-82
2022/02/15 03:02:29;;;;;;;101.57;65.57;;;180.00;2252.80;;;;;;4731754;30;20041;-84
2022/02/15 03:05:29;;;;;;;156.65;99.10;;;180.10;2252.80;;;;;;4760070;30;20043;-83
2022/02/15 03:15:23;;;;;;;60.45;37.90;;;180.10;2252.80;;;;;;4832169;29;20090;-83
2022/02/15 03:18:57;;;;;;;64.00;40.58;;;180.10;2252.80;;;;;;4793200;29;20034;-82
2022/02/15 03:22:25;;;;;;;45.40;30.65;;;180.00;2252.80;;;;;;4787980;29;20031;-82
2022/02/15 03:25:33;;;;;;;39.92;27.13;;;179.90;2252.80;;;;;;4734551;30;20517;-79
2022/02/15 03:31:42;;;;;;;47.22;30.70;;;180.00;2252.80;;;;;;4769849;30;20073;-82
2022/02/15 03:34:16;;;;;;;49.80;29.90;;;180.10;2252.80;;;;;;4769149;30;20073;-82
2022/02/15 03:37:07;;;;;;;55.63;37.38;;;180.10;2252.80;;;;;;4754789;30;20032;-82
2022/02/15 03:40:00;;;;;;;68.20;45.70;;;180.10;2252.80;;;;;;4767351;30;20043;-82
2022/02/15 03:45:58;;;;;;;60.40;39.63;;;180.00;2252.80;;;;;;4781314;29;20034;-80
2022/02/15 03:49:11;;;;;;;57.97;37.50;;;180.10;2252.80;;;;;;4769338;30;20118;-81
2022/02/15 03:51:46;;;;;;;;;;;204.80;2252.80;;;;;;4779310;30;20089;-84
2022/02/15 03:54:48;;;;;;;39.20;24.65;;;180.10;2252.80;;;;;;4769416;30;19913;-83
2022/02/15 03:57:37;;;;;;;;;;;180.10;2252.80;;;;;;4793351;29;20042;-84
2022/02/15 04:00:30;;;;;;;33.05;23.30;;;180.00;2252.80;;;;;;4818570;29;19916;-82
2022/02/15 04:03:16;;;;;;;34.83;24.98;;;180.10;2252.80;;;;;;4817415;29;20034;-83
2022/02/15 04:05:43;;;;;;;33.00;23.73;;;180.10;2252.80;;;;;;4823622;29;20471;-82
2022/02/15 04:08:10;;;;;;;46.53;28.38;;;180.00;2252.80;;;;;;4808529;29;20491;-81
2022/02/15 04:10:36;;;;;;;49.63;28.42;;;180.10;2252.80;;;;;;4824000;29;20065;-82
2022/02/15 04:13:24;;;;;;;60.78;31.02;;;180.10;2252.80;;;;;;4825103;29;20546;-82
2022/02/15 04:16:12;;;;;;;47.63;26.52;;;180.00;2252.80;;;;;;4826119;29;20034;-83
2022/02/15 04:18:43;;;;;;;51.95;27.95;;;179.90;2252.80;;;;;;4826902;29;20375;-82
2022/02/15 04:21:14;;;;;;;52.33;27.67;;;180.00;2252.80;;;;;;4841629;29;20026;-79
2022/02/15 04:24:07;;;;;;;43.78;23.92;;;180.00;2252.80;;;;;;4826274;29;20038;-81
2022/02/15 04:26:37;;;;;;;51.28;26.85;;;180.00;2252.80;;;;;;4841255;29;20036;-80
2022/02/15 04:29:05;;;;;;;42.60;23.85;;;179.90;2252.80;;;;;;4826348;29;20041;-79
2022/02/15 04:31:33;;;;;;;35.60;20.73;;;180.00;2252.80;;;;;;4841767;29;20109;-81
2022/02/15 04:33:59;;;;;;;37.90;21.90;;;179.80;2252.80;;;;;;4841120;29;20026;-80
2022/02/15 04:36:25;;;;;;;35.13;21.42;;;179.80;2252.80;;;;;;4811512;29;20085;-83
2022/02/15 04:38:54;;;;;;;28.33;19.88;;;179.80;2252.80;;;;;;4826649;29;20038;-82
2022/02/15 04:41:30;;;;;;;27.20;19.90;;;179.90;2252.80;;;;;;4810925;29;20098;-80
2022/02/15 04:44:37;;;;;;;24.15;16.85;;;179.90;2252.80;;;;;;4841120;29;20398;-79
2022/02/15 04:47:48;;;;;;;22.65;15.63;;;180.00;2252.80;;;;;;4841008;29;20086;-82
2022/02/15 05:04:55;;;;;;;48.67;31.85;;;179.90;2252.80;;;;;;4880213;29;20003;-82
2022/02/15 05:14:57;;;;;;;39.40;25.08;;;180.00;2252.80;;;;;;4860002;29;20517;-83
2022/02/15 05:18:30;;;;;;;45.03;28.30;;;180.00;2252.80;;;;;;4840476;29;20467;-83
2022/02/15 05:21:57;;;;;;;48.60;31.02;;;180.10;2252.80;;;;;;4792452;29;20646;-85
2022/02/15 05:25:17;;;;;;;41.20;29.20;;;180.10;2252.80;;;;;;4783804;30;20118;-81
2022/02/15 05:28:41;;;;;;;50.97;30.95;;;180.10;2252.80;;;;;;4719096;30;20029;-81
2022/02/15 05:32:02;;;;;;;49.65;34.25;;;180.10;2252.80;;;;;;4715088;30;20100;-81
2022/02/15 05:35:32;;;;;;;56.33;37.80;;;179.90;2252.80;;;;;;4697973;30;20048;-82
2022/02/15 05:39:04;;;;;;;48.58;33.15;;;180.00;2252.80;;;;;;4670516;30;20034;-82
2022/02/15 05:42:43;;;;;;;41.83;26.30;;;180.00;2252.80;;;;;;4684757;30;20034;-83
2022/02/15 05:46:17;;;;;;;34.35;22.35;;;180.00;2252.80;;;;;;4667040;30;20030;-81
2022/02/15 05:52:34;;;;;;;38.03;24.77;;;204.80;2252.80;;;;;;4667292;30;19915;-84
2022/02/15 05:59:47;;;;;;;31.88;21.33;;;180.10;2252.80;;;;;;4661170;30;20141;-81
2022/02/15 06:06:11;;;;;;;45.30;29.30;;;204.80;2252.80;;;;;;4694180;30;20071;-83
2022/02/15 06:09:09;;;;;;;48.67;27.73;;;204.80;2252.80;;;;;;4706910;30;20087;-82
2022/02/15 06:12:40;;;;;;;39.78;26.23;;;204.80;2252.80;;;;;;4750767;30;20028;-82
2022/02/15 06:15:55;;;;;;;40.17;27.25;;;204.90;2252.80;;;;;;4735803;30;20456;-81
2022/02/15 06:19:13;;;;;;;46.25;28.67;;;204.90;2252.80;;;;;;4701918;30;20045;-83
2022/02/15 06:22:10;;;;;;;39.00;26.75;;;204.90;2252.80;;;;;;4768304;29;20042;-81
2022/02/15 06:25:10;;;;;;;40.58;28.05;;;204.90;2252.80;;;;;;4771245;30;20088;-82
2022/02/15 06:28:25;;;;;;;41.22;27.35;;;205.00;2252.80;;;;;;4735665;30;20036;-81
2022/02/15 06:32:07;;;;;;;57.88;39.38;;;205.00;2252.80;;;;;;4666387;30;20073;-81
2022/02/15 06:35:09;;;;;;;26.63;18.02;;;205.00;2252.80;;;;;;4638712;30;20061;-82
2022/02/15 06:38:22;;;;;;;17.55;13.35;;;205.10;2252.80;;;;;;4683549;30;20538;-82
2022/02/15 06:40:58;;;;;;;;;;;205.20;2252.80;;;;;;4685586;30;20044;-83
2022/02/15 06:44:44;;;;;;;24.48;16.35;;;205.30;2252.80;;;;;;4683925;30;19908;-83
2022/02/15 06:48:07;;;;;;;26.83;19.10;;;205.30;2252.80;;;;;;4681174;30;20180;-82
2022/02/15 06:51:03;;;;;;;30.10;20.52;;;205.30;2252.80;;;;;;4643648;30;20081;-82
2022/02/15 06:58:27;;;;;;;33.63;24.63;;;205.50;2252.80;;;;;;4681987;30;20172;-84
2022/02/15 07:01:55;;;;;;;33.55;24.42;;;205.60;2252.80;;;;;;4683055;30;20124;-84
2022/02/15 07:05:02;;;;;;;42.95;28.58;;;205.60;2252.80;;;;;;4717687;30;20045;-82
2022/02/15 07:08:18;;;;;;;44.53;28.80;;;205.70;2252.80;;;;;;4730739;29;20050;-83
2022/02/15 07:14:08;;;;;;;34.08;24.95;;;205.70;2252.80;;;;;;4844640;29;20033;-85
2022/02/15 07:16:38;;;;;;;38.08;28.48;;;230.50;2252.80;;;;;;4846505;29;20025;-86
2022/02/15 07:19:17;;;;;;;41.80;29.42;;;230.50;2252.80;;;;;;4847168;29;20377;-86
2022/02/15 07:21:49;;;;;;;45.33;31.30;;;230.60;2252.80;;;;;;4846197;29;20066;-85
2022/02/15 07:24:20;;;;;;;41.88;27.15;;;230.60;2252.80;;;;;;4846651;29;20045;-84
2022/02/15 07:26:51;;;;;;;40.72;27.08;;;230.70;2252.80;;;;;;4831360;29;20032;-85
2022/02/15 07:29:47;;;;;;;35.80;26.60;;;230.80;2252.80;;;;;;4846524;29;20469;-85
2022/02/15 07:32:41;;;;;;;43.40;28.52;;;230.90;2252.80;;;;;;4846325;29;20410;-85
2022/02/15 07:35:14;;;;;;;44.72;32.60;;;230.90;2252.80;;;;;;4862839;29;20025;-87
2022/02/15 07:38:09;;;;;;;42.88;31.67;;;231.00;2252.80;;;;;;4830736;29;20052;-85
2022/02/15 07:40:45;;;;;;;34.05;23.98;;;231.00;2252.80;;;;;;4863122;29;20489;-85
2022/02/15 07:43:13;;;;;;;47.97;32.63;;;231.00;2252.80;;;;;;4831625;29;20033;-85
2022/02/15 07:45:49;;;;;;;48.55;32.53;;;231.10;2252.80;;;;;;4845780;29;20065;-86
2022/02/15 07:48:17;;;;;;;41.40;28.13;;;231.20;2252.80;;;;;;4846533;29;20018;-83
2022/02/15 07:50:44;;;;;;;31.42;22.50;;;231.20;2252.80;;;;;;4845804;29;20025;-85
2022/02/15 07:53:10;;;;;;;26.40;19.52;;;231.20;2252.80;;;;;;4845697;29;20043;-85
2022/02/15 07:55:37;;;;;;;23.50;16.70;;;231.20;2252.80;;;;;;4855847;29;20424;-84
2022/02/15 07:58:05;;;;;;;24.95;18.17;;;231.30;2252.80;;;;;;4881004;29;20465;-82
2022/02/15 08:00:38;;;;;;;25.77;18.43;;;231.30;2252.80;;;;;;4848086;29;20451;-83
2022/02/15 08:03:10;;;;;;;31.15;21.50;;;231.30;2252.80;;;;;;4879957;29;20269;-80
2022/02/15 08:05:41;;;;;;;30.23;22.13;;;231.30;2252.80;;;;;;4894604;29;20030;-79
2022/02/15 08:08:09;;;;;;;26.58;19.30;;;256.00;2252.80;;;;;;4864385;29;20025;-81
2022/02/15 08:10:39;;;;;;;32.67;24.02;;;256.10;2252.80;;;;;;4864353;29;20461;-84
2022/02/15 08:13:18;;;;;;;30.25;22.83;;;256.10;2252.80;;;;;;4879415;29;20041;-82
2022/02/15 08:16:03;;;;;;;29.70;19.95;;;256.20;2252.80;;;;;;4864069;29;20120;-84
2022/02/15 08:18:32;;;;;;;29.52;19.75;;;256.20;2252.80;;;;;;4863879;29;20382;-83
2022/02/15 08:21:03;;;;;;;28.08;21.92;;;256.20;2252.80;;;;;;4848156;29;20037;-82
2022/02/15 08:23:35;;;;;;;23.65;17.20;;;256.20;2252.80;;;;;;4894118;29;20021;-85
2022/02/15 08:26:01;;;;;;;29.10;19.60;;;256.30;2252.80;;;;;;4863487;29;20367;-79
2022/02/15 08:28:28;;;;;;;32.80;21.98;;;256.40;2252.80;;;;;;4863836;29;20029;-84
2022/02/15 08:30:54;;;;;;;27.00;16.90;;;256.40;2252.80;;;;;;4873467;29;20020;-74
2022/02/15 08:33:20;;;;;;;22.92;16.08;;;256.30;2252.80;;;;;;4881951;29;20046;-74
2022/02/15 08:35:46;;;;;;;23.52;16.75;;;256.30;2252.80;;;;;;4882118;29;20025;-76
2022/02/15 08:38:12;;;;;;;23.15;14.68;;;256.40;2252.80;;;;;;4882215;29;20032;-75
2022/02/15 08:40:38;;;;;;;19.00;14.48;;;256.50;2252.80;;;;;;4881953;29;20121;-78
2022/02/15 08:43:04;;;;;;;21.50;16.10;;;256.50;2252.80;;;;;;4882207;29;20036;-77
2022/02/15 08:45:30;;;;;;;20.63;14.13;;;256.60;2252.80;;;;;;4881749;29;20029;-77
2022/02/15 08:47:56;;;;;;;24.25;15.50;;;256.60;2252.80;;;;;;4898977;29;20052;-74
2022/02/15 08:50:22;;;;;;;21.15;15.75;;;256.70;2252.80;;;;;;4882152;29;20122;-76
2022/02/15 08:52:48;;;;;;;22.67;16.08;;;256.70;2252.80;;;;;;4881996;29;20067;-82
2022/02/15 08:55:15;;;;;;;19.95;14.20;;;256.80;2252.80;;;;;;4882027;29;20087;-76
2022/02/15 08:57:41;;;;;;;17.40;11.40;;;256.90;2252.80;;;;;;4882040;29;20602;-77
2022/02/15 09:00:10;;;;;;;18.13;13.30;;;256.90;2252.80;;;;;;4881597;29;20033;-75
2022/02/15 09:02:37;;;;;;;21.95;15.85;;;281.60;2278.40;;;;;;4881961;29;20025;-81
2022/02/15 09:05:04;;;;;;;18.88;15.05;;;281.70;2278.40;;;;;;4881964;29;20025;-74
2022/02/15 09:07:30;;;;;;;18.10;13.02;;;281.80;2278.40;;;;;;4881709;29;20031;-77
2022/02/15 09:09:56;;;;;;;23.77;15.80;;;281.90;2278.40;;;;;;4882015;29;20035;-81
2022/02/15 09:12:22;;;;;;;25.60;18.23;;;281.90;2278.40;;;;;;4880908;29;20369;-79
2022/02/15 09:15:04;;;;;;;25.83;19.30;;;282.00;2278.40;;;;;;4881599;29;20028;-79
2022/02/15 09:17:36;;;;;;;28.35;21.27;;;282.10;2278.40;;;;;;4881694;29;20060;-78
2022/02/15 09:20:05;;;;;;;30.95;21.33;;;282.10;2278.40;;;;;;4881929;29;20039;-78
2022/02/15 09:22:48;;;;;;;21.00;15.35;;;282.20;2278.40;;;;;;4881176;29;20040;-79
2022/02/15 09:25:20;;;;;;;28.13;18.08;;;282.30;2278.40;;;;;;4880055;29;20021;-81
2022/02/15 09:27:46;;;;;;;;;;;282.30;2278.40;;;;;;4881527;29;20021;-77
2022/02/15 09:30:18;;;;;;;17.83;10.77;;;282.40;2278.40;;;;;;4881417;29;19904;-78
2022/02/15 09:33:20;;;;;;;16.05;11.15;;;282.40;2278.40;;;;;;4881825;29;20025;-80
2022/02/15 09:35:54;;;;;;;23.20;14.60;;;307.20;2304.00;;;;;;4877135;29;20504;-81
2022/02/15 09:38:21;;;;;;;22.33;14.75;;;307.40;2304.00;;;;;;4879366;29;20032;-78
2022/02/15 09:40:52;;;;;;;19.38;15.07;;;307.60;2304.00;;;;;;4882152;29;20453;-80
2022/02/15 09:43:18;;;;;;;18.83;13.73;;;307.60;2304.00;;;;;;4882078;29;20453;-78
2022/02/15 09:45:50;;;;;;;25.50;18.00;;;307.60;2304.00;;;;;;4881398;29;20385;-77
2022/02/15 09:48:18;;;;;;;34.05;19.88;;;307.80;2304.00;;;;;;4881594;29;20444;-80
2022/02/15 09:50:49;;;;;;;24.35;18.02;;;307.80;2304.00;;;;;;4898361;29;20103;-80
2022/02/15 09:53:18;;;;;;;40.30;25.27;;;308.00;2304.00;;;;;;4881400;29;20024;-80
2022/02/15 09:55:44;;;;;;;44.35;32.38;;;308.10;2304.00;;;;;;4880529;29;20057;-78
2022/02/15 09:58:10;;;;;;;31.98;20.20;;;332.80;2329.60;;;;;;4897910;29;20035;-82
2022/02/15 10:00:36;;;;;;;19.75;14.38;;;333.00;2329.60;;;;;;4898509;29;20032;-76
2022/02/15 10:03:02;;;;;;;17.92;13.05;;;333.20;2329.60;;;;;;4881142;29;20024;-77
2022/02/15 10:05:33;;;;;;;17.60;13.10;;;308.10;2227.20;;;;;;4881337;29;20508;-77
2022/02/15 10:07:59;;;;;;;31.38;25.23;;;333.00;2304.00;;;;;;4881360;29;20072;-77
2022/02/15 10:10:36;;;;;;;21.77;16.10;;;333.10;2329.60;;;;;;4880927;29;20024;-77
2022/02/15 10:13:30;;;;;;;36.25;28.77;;;333.10;2329.60;;;;;;4881430;29;20044;-77
2022/02/15 10:15:58;;;;;;;23.73;17.23;;;333.20;2329.60;;;;;;4878891;29;20365;-80
2022/02/15 10:18:25;;;;;;;22.80;18.52;;;333.20;2329.60;;;;;;4881091;29;20052;-82
2022/02/15 10:20:57;;;;;;;33.13;21.73;;;333.20;2329.60;;;;;;4880935;29;20406;-78
2022/02/15 10:23:26;;;;;;;19.63;14.07;;;333.20;2329.60;;;;;;4882367;29;20029;-80
2022/02/15 10:25:53;;;;;;;40.15;30.10;;;333.30;2278.40;;;;;;4884287;29;20032;-82
2022/02/15 10:28:38;;;;;;;27.17;19.77;;;333.30;2278.40;;;;;;4884236;29;20111;-78
2022/02/15 10:31:33;;;;;;;22.75;15.52;;;333.30;2304.00;;;;;;4884265;29;20067;-78
2022/02/15 10:34:05;;;;;;;32.70;21.35;;;333.40;2278.40;;;;;;4900011;29;20047;-79
2022/02/15 10:36:39;;;;;;;31.73;21.75;;;333.40;2278.40;;;;;;4884688;29;20368;-80
2022/02/15 10:39:12;;;;;;;31.45;22.40;;;333.50;2227.20;;;;;;4884327;29;20372;-82
2022/02/15 10:41:44;;;;;;;44.10;26.48;;;333.70;2304.00;;;;;;4884436;29;20029;-78
2022/02/15 10:44:15;;;;;;;34.97;22.00;;;358.40;2252.80;;;;;;4884267;29;20032;-79
2022/02/15 10:46:41;;;;;;;33.45;21.05;;;358.50;2227.20;;;;;;4883842;29;20033;-80
2022/02/15 10:49:13;;;;;;;25.90;19.73;;;358.70;2227.20;;;;;;4934226;29;20038;-81
2022/02/15 10:51:52;;;;;;;;;;;;;;;;;;;;;
2022/02/15 10:54:24;;;;;;;19.65;13.13;;;358.70;2150.40;;;;;;4920424;29;20030;-81
2022/02/15 10:56:53;;;;;;;34.27;21.63;;;358.80;2124.80;;;;;;4884156;29;20044;-79
2022/02/15 10:59:20;;;;;;;51.13;31.33;;;358.90;2176.00;;;;;;4883775;29;20157;-79
2022/02/15 11:01:50;;;;;;;19.73;12.60;;;359.00;2124.80;;;;;;4883375;29;20035;-82
2022/02/15 11:04:18;;;;;;;21.42;14.52;;;359.00;2124.80;;;;;;4883914;29;20409;-77
2022/02/15 11:06:48;;;;;;;27.25;17.38;;;359.00;2124.80;;;;;;4879619;29;20033;-77
2022/02/15 11:09:20;;;;;;;20.83;13.75;;;359.10;2099.20;;;;;;4865007;29;20057;-78
2022/02/15 11:12:08;;;;;;;20.95;13.45;;;359.20;2073.60;;;;;;4864690;29;20035;-79
2022/02/15 11:14:37;;;;;;;33.47;22.27;;;359.20;2048.00;;;;;;4881786;29;20034;-80
2022/02/15 11:17:16;;;;;;;33.13;24.85;;;359.20;2099.20;;;;;;4854302;29;20025;-82
2022/02/15 11:19:45;;;;;;;22.98;14.55;;;384.00;2048.00;;;;;;4864419;29;20041;-78
2022/02/15 11:22:23;;;;;;;19.30;14.73;;;384.20;2073.60;;;;;;4864923;29;20487;-78
2022/02/15 11:24:52;;;;;;;17.02;12.77;;;384.30;2099.20;;;;;;4864416;29;20039;-79
2022/02/15 11:27:20;;;;;;;19.23;12.95;;;384.40;2124.80;;;;;;4864598;29;20025;-80
2022/02/15 11:29:56;;;;;;;33.47;23.17;;;384.60;1971.20;;;;;;4864650;29;20033;-78
2022/02/15 11:32:25;;;;;;;33.78;21.88;;;384.70;1996.80;;;;;;4864922;29;20125;-80
2022/02/15 11:34:51;;;;;;;18.23;12.52;;;384.60;1996.80;;;;;;4863415;29;20025;-80
2022/02/15 11:37:19;;;;;;;35.38;22.17;;;409.60;2022.40;;;;;;4864907;29;20453;-78
2022/02/15 11:39:57;;;;;;;21.17;15.18;;;409.60;2022.40;;;;;;4864469;29;20358;-81
2022/02/15 11:42:23;;;;;;;19.95;15.95;;;384.60;1996.80;;;;;;4864546;29;20040;-79
2022/02/15 11:44:49;;;;;;;21.58;16.27;;;384.80;2022.40;;;;;;4864527;29;20029;-78
2022/02/15 11:47:20;;;;;;;19.77;12.57;;;409.60;1996.80;;;;;;4872883;29;20017;-76
2022/02/15 11:50:00;;;;;;;53.38;34.47;;;410.00;1996.80;;;;;;4888932;29;20021;-78
2022/02/15 11:52:32;;;;;;;24.88;17.83;;;410.00;1971.20;;;;;;4889061;29;20025;-75
2022/02/15 11:55:07;;;;;;;21.67;16.33;;;409.80;1971.20;;;;;;4874138;29;20392;-79
2022/02/15 11:57:35;;;;;;;26.17;13.45;;;409.90;1971.20;;;;;;4883622;29;20119;-78
2022/02/15 12:00:01;;;;;;;17.02;12.15;;;410.20;1894.40;;;;;;4883306;29;20392;-75
2022/02/15 12:02:27;;;;;;;16.70;11.23;;;410.20;1868.80;;;;;;4883031;29;20036;-78
2022/02/15 12:04:58;;;;;;;18.80;12.18;;;435.30;1868.80;;;;;;4883158;29;20025;-78
2022/02/15 12:07:31;;;;;;;20.23;13.37;;;435.60;1817.60;;;;;;4883003;29;20021;-78
2022/02/15 12:09:59;;;;;;;22.40;15.80;;;436.00;1792.00;;;;;;4882393;29;20115;-78
2022/02/15 12:12:52;;;;;;;17.15;10.85;;;460.80;1817.60;;;;;;4882959;29;20028;-76
2022/02/15 12:15:19;;;;;;;20.60;15.50;;;460.80;1817.60;;;;;;4880871;29;20032;-79
2022/02/15 12:17:46;;;;;;;32.88;22.30;;;461.10;1766.40;;;;;;4882396;29;20060;-80
2022/02/15 12:20:17;;;;;;;28.05;14.52;;;461.10;1740.80;;;;;;4882434;29;20377;-78
2022/02/15 12:22:45;;;;;;;14.27;9.98;;;460.80;1740.80;;;;;;4882250;29;20596;-78
2022/02/15 12:25:13;;;;;;;23.30;11.88;;;460.80;1766.40;;;;;;4882539;29;20047;-77
2022/02/15 12:27:44;;;;;;;20.65;13.32;;;460.90;1766.40;;;;;;4882458;29;20084;-76
2022/02/15 12:30:12;;;;;;;16.33;9.30;;;460.80;1766.40;;;;;;4882252;29;20030;-79
2022/02/15 12:32:40;;;;;;;11.38;7.65;;;461.10;1766.40;;;;;;4882142;29;20115;-78
2022/02/15 12:35:07;;;;;;;14.30;9.80;;;461.10;1740.80;;;;;;4882461;29;20081;-78
2022/02/15 12:37:33;;;;;;;18.92;12.93;;;461.10;1740.80;;;;;;4882070;29;20028;-78
2022/02/15 12:40:00;;;;;;;15.20;10.02;;;461.10;1715.20;;;;;;4882263;29;20039;-79
2022/02/15 12:42:29;;;;;;;19.00;12.45;;;461.30;1740.80;;;;;;4899097;29;20028;-80
2022/02/15 12:45:07;;;;;;;21.27;12.07;;;461.40;1740.80;;;;;;4881974;29;20388;-79
2022/02/15 12:47:35;;;;;;;12.48;8.05;;;461.60;1715.20;;;;;;4882155;29;20468;-78
2022/02/15 12:50:03;;;;;;;13.52;8.05;;;461.40;1715.20;;;;;;4899085;29;20040;-79
2022/02/15 12:52:30;;;;;;;19.23;9.98;;;461.70;1689.60;;;;;;4881975;29;20027;-80
2022/02/15 12:54:59;;;;;;;18.13;14.80;;;461.40;1689.60;;;;;;4881982;29;20091;-78
2022/02/15 12:57:27;;;;;;;16.17;10.57;;;461.40;1689.60;;;;;;4882090;29;20052;-78
2022/02/15 12:59:57;;;;;;;13.68;7.13;;;461.50;1664.00;;;;;;4881770;29;20321;-78
2022/02/15 13:02:27;;;;;;;21.95;10.13;;;461.30;1664.00;;;;;;4882101;29;20033;-78
2022/02/15 13:04:59;;;;;;;19.42;10.93;;;461.60;1664.00;;;;;;4881723;29;20020;-78
2022/02/15 13:07:26;;;;;;;14.77;9.25;;;461.60;1664.00;;;;;;4882167;29;20024;-80
2022/02/15 13:09:54;;;;;;;16.67;11.52;;;461.40;1664.00;;;;;;4881949;29;20064;-78
2022/02/15 13:12:26;;;;;;;19.40;10.20;;;486.40;1664.00;;;;;;4881627;29;20035;-79
2022/02/15 13:14:58;;;;;;;18.15;10.18;;;461.50;1638.40;;;;;;4913244;29;20080;-79
2022/02/15 13:17:46;;;;;;;13.77;7.68;;;461.60;1664.00;;;;;;4881914;29;20032;-80
2022/02/15 13:20:24;;;;;;;22.48;10.30;;;486.40;1664.00;;;;;;4881552;29;20040;-76
2022/02/15 13:23:03;;;;;;;18.77;9.10;;;461.60;1664.00;;;;;;4881802;29;20095;-76
2022/02/15 13:25:50;;;;;;;23.38;14.13;;;461.50;1664.00;;;;;;4881600;29;20465;-75
2022/02/15 13:28:19;;;;;;;20.67;11.38;;;486.40;1638.40;;;;;;4898656;29;20024;-74
2022/02/15 13:30:46;;;;;;;48.22;37.28;;;461.50;1664.00;;;;;;4881817;29;20025;-77
2022/02/15 13:33:15;;;;;;;15.73;10.57;;;461.40;1664.00;;;;;;4881821;29;20052;-78
2022/02/15 13:35:44;;;;;;;18.15;12.32;;;461.20;1689.60;;;;;;4881461;29;20052;-79
2022/02/15 13:38:16;;;;;;;16.15;11.85;;;461.20;1715.20;;;;;;4898118;29;20100;-78
2022/02/15 13:40:42;;;;;;;17.73;12.70;;;461.00;1715.20;;;;;;4881504;29;20543;-80
2022/02/15 13:43:18;;;;;;;16.75;13.27;;;436.00;1715.20;;;;;;4881654;29;20119;-78
2022/02/15 13:45:44;;;;;;;22.65;14.55;;;436.10;1740.80;;;;;;4881675;29;20437;-80
2022/02/15 13:48:10;;;;;;;23.33;15.13;;;460.90;1715.20;;;;;;4912628;29;20112;-78
2022/02/15 13:50:36;;;;;;;20.05;14.00;;;460.90;1715.20;;;;;;4881592;29;20028;-79
2022/02/15 13:53:02;;;;;;;20.10;12.07;;;436.00;1740.80;;;;;;4912861;29;20025;-78
2022/02/15 13:55:28;;;;;;;18.50;12.27;;;435.60;1740.80;;;;;;4880931;29;20044;-79
2022/02/15 13:57:54;;;;;;;32.10;23.88;;;435.60;1766.40;;;;;;4913322;29;20393;-81
2022/02/15 14:00:24;;;;;;;22.58;18.95;;;435.40;1766.40;;;;;;4885068;29;20124;-79
2022/02/15 14:02:51;;;;;;;18.90;14.07;;;435.50;1766.40;;;;;;4884871;29;20028;-79
2022/02/15 14:05:17;;;;;;;23.27;15.55;;;435.60;1792.00;;;;;;4885077;29;20107;-78
2022/02/15 14:07:44;;;;;;;22.88;15.75;;;435.30;1766.40;;;;;;4884579;29;20032;-80
2022/02/15 14:10:10;;;;;;;18.00;11.07;;;435.30;1792.00;;;;;;4885009;29;20036;-80
2022/02/15 14:12:40;;;;;;;21.75;17.20;;;435.30;1792.00;;;;;;4884656;29;20032;-78
2022/02/15 14:15:11;;;;;;;25.15;19.35;;;410.50;1792.00;;;;;;4884598;29;20031;-78
2022/02/15 14:17:45;;;;;;;26.58;17.60;;;410.20;1792.00;;;;;;4901673;29;20021;-76
2022/02/15 14:20:29;;;;;;;20.13;16.33;;;410.20;1817.60;;;;;;4884833;29;20036;-79
2022/02/15 14:23:05;;;;;;;27.20;18.52;;;410.00;1817.60;;;;;;4884301;29;20047;-81
2022/02/15 14:26:09;;;;;;;28.65;19.58;;;410.00;1817.60;;;;;;4885042;29;20036;-79
2022/02/15 14:31:51;;;;;;;22.27;16.05;;;409.70;1843.20;;;;;;4888056;29;20029;-81
2022/02/15 14:34:18;;;;;;;24.75;13.70;;;384.90;1817.60;;;;;;4884680;29;20076;-79
2022/02/15 14:36:47;;;;;;;24.23;16.95;;;384.80;1843.20;;;;;;4884455;29;20024;-79
2022/02/15 14:39:13;;;;;;;24.42;18.50;;;384.80;1843.20;;;;;;4884510;29;20025;-79
2022/02/15 14:41:40;;;;;;;35.95;24.13;;;384.70;1843.20;;;;;;4884506;29;20028;-79
2022/02/15 14:44:06;;;;;;;23.10;17.20;;;384.70;1843.20;;;;;;4884436;29;20111;-79
2022/02/15 14:46:32;;;;;;;32.53;15.52;;;384.70;1843.20;;;;;;4901079;29;20025;-80
2022/02/15 14:49:01;;;;;;;31.90;24.15;;;384.60;1843.20;;;;;;4901412;29;20092;-80
2022/02/15 14:51:27;;;;;;;32.08;21.08;;;384.50;1843.20;;;;;;4900891;29;20372;-80
2022/02/15 14:53:53;;;;;;;30.67;21.50;;;384.60;1868.80;;;;;;4883376;29;20024;-81
2022/02/15 14:56:20;;;;;;;36.05;22.48;;;384.60;1868.80;;;;;;4884158;29;20056;-80